Time;durP1;ratioP1;P1;durP2;ratioP2;P2;SDS_P1;SDS_P2;PMS_P1;PMS_P2;Temp;Humidity;BMP_temperature;BMP_pressure;BME280_temperature;BME280_humidity;BME280_pressure;Samples;Min_cycle;Max_cycle;Signal;HPM_P1;HPM_P2
2021/06/03 00:01:33;;;;;;;8.90;6.97;;;;;;;13.88;100.00;96628.69;4985737;28;20077;-64
2021/06/03 00:04:02;;;;;;;8.40;7.50;;;;;;;13.92;100.00;96632.66;4985205;28;20085;-63
2021/06/03 00:06:30;;;;;;;9.13;7.57;;;;;;;13.92;100.00;96633.50;4986374;28;20074;-64
2021/06/03 00:08:58;;;;;;;8.35;7.47;;;;;;;13.99;100.00;96629.19;4963329;28;20494;-64
2021/06/03 00:11:26;;;;;;;9.40;8.10;;;;;;;14.01;100.00;96632.53;4966963;28;20171;-64
2021/06/03 00:13:54;;;;;;;11.07;9.32;;;;;;;14.05;100.00;96635.69;4971931;28;20073;-64
2021/06/03 00:16:23;;;;;;;11.02;9.80;;;;;;;14.10;100.00;96629.88;4984941;28;20069;-62
2021/06/03 00:18:51;;;;;;;14.90;10.10;;;;;;;14.13;100.00;96626.91;4987695;28;20543;-63
2021/06/03 00:21:19;;;;;;;13.77;9.85;;;;;;;14.09;100.00;96628.25;4989654;28;20456;-62
2021/06/03 00:23:47;;;;;;;13.00;9.70;;;;;;;14.08;100.00;96631.91;4981178;28;20070;-63
2021/06/03 00:26:15;;;;;;;12.00;10.23;;;;;;;14.09;100.00;96623.75;4975019;28;20065;-62
2021/06/03 00:28:43;;;;;;;9.95;7.40;;;;;;;13.78;100.00;96631.47;4969866;28;20122;-63
2021/06/03 00:31:11;;;;;;;9.70;7.50;;;;;;;13.60;100.00;96638.69;4990317;28;20085;-64
2021/06/03 00:33:41;;;;;;;10.82;7.38;;;;;;;13.51;100.00;96641.28;4988665;28;20082;-63
2021/06/03 00:36:09;;;;;;;9.27;7.68;;;;;;;13.27;100.00;96647.28;4986549;28;20080;-64
2021/06/03 00:38:38;;;;;;;9.07;7.38;;;;;;;13.38;100.00;96643.53;4992396;28;20085;-64
2021/06/03 00:41:07;;;;;;;11.85;7.68;;;;;;;13.63;100.00;96647.16;4985183;28;20069;-64
2021/06/03 00:43:35;;;;;;;10.45;8.50;;;;;;;13.51;100.00;96643.09;4983551;28;20062;-63
2021/06/03 00:46:05;;;;;;;10.32;8.95;;;;;;;13.47;100.00;96645.25;4984685;28;20489;-64
2021/06/03 00:48:33;;;;;;;10.65;8.65;;;;;;;13.50;100.00;96650.22;4989945;28;20096;-64
2021/06/03 00:51:05;;;;;;;10.85;9.75;;;;;;;13.61;100.00;96640.34;4982290;28;20521;-64
2021/06/03 00:53:34;;;;;;;15.65;10.52;;;;;;;13.61;100.00;96648.28;4987643;28;20062;-63
2021/06/03 00:56:04;;;;;;;12.32;9.77;;;;;;;13.56;100.00;96647.91;4982738;28;20416;-62
2021/06/03 00:58:34;;;;;;;12.80;9.45;;;;;;;13.38;100.00;96654.13;4985247;28;20066;-63
2021/06/03 01:01:03;;;;;;;9.93;8.82;;;;;;;13.41;100.00;96659.09;4985009;28;20077;-61
2021/06/03 01:03:32;;;;;;;13.73;9.05;;;;;;;13.44;100.00;96648.19;4989009;28;20085;-64
2021/06/03 01:06:04;;;;;;;13.13;9.55;;;;;;;13.42;100.00;96650.19;4983360;28;20073;-64
2021/06/03 01:08:33;;;;;;;14.55;10.32;;;;;;;13.39;100.00;96661.09;4988423;28;20081;-64
2021/06/03 01:11:06;;;;;;;13.02;10.10;;;;;;;12.95;100.00;96665.59;4983605;28;20074;-64
2021/06/03 01:13:44;;;;;;;11.68;9.98;;;;;;;13.26;100.00;96664.16;4986985;28;20065;-62
2021/06/03 01:16:13;;;;;;;15.32;10.35;;;;;;;13.11;100.00;96663.06;4988056;28;20093;-63
2021/06/03 01:18:42;;;;;;;10.80;9.63;;;;;;;13.14;100.00;96661.88;4989229;28;20081;-64
2021/06/03 01:21:13;;;;;;;11.00;9.80;;;;;;;13.13;100.00;96670.81;4983434;28;20066;-64
2021/06/03 01:23:45;;;;;;;12.38;9.48;;;;;;;13.10;100.00;96671.97;4989238;28;20508;-63
2021/06/03 01:26:16;;;;;;;13.38;9.35;;;;;;;13.03;100.00;96670.91;4983895;28;20065;-64
2021/06/03 01:28:45;;;;;;;11.00;9.90;;;;;;;13.10;100.00;96684.38;4986797;28;20077;-62
2021/06/03 01:31:14;;;;;;;12.95;10.10;;;;;;;13.04;100.00;96677.88;4986538;28;20078;-65
2021/06/03 01:33:42;;;;;;;13.57;11.25;;;;;;;12.92;100.00;96681.75;4986765;28;20082;-65
2021/06/03 01:36:16;;;;;;;14.73;11.55;;;;;;;12.95;100.00;96692.06;4991928;28;20069;-62
2021/06/03 01:38:44;;;;;;;13.90;11.80;;;;;;;12.92;100.00;96684.41;4988358;28;20539;-63
2021/06/03 01:41:14;;;;;;;13.77;11.27;;;;;;;12.82;100.00;96687.13;4983937;28;20531;-61
2021/06/03 01:43:45;;;;;;;12.95;11.57;;;;;;;12.72;100.00;96694.34;4985168;28;20069;-62
2021/06/03 01:46:13;;;;;;;;;;;;;;;12.66;100.00;96698.41;4985279;28;20085;-62
2021/06/03 01:48:41;;;;;;;13.93;12.00;;;;;;;12.77;100.00;96702.66;4987930;28;19995;-62
2021/06/03 01:51:11;;;;;;;12.00;10.60;;;;;;;12.75;100.00;96709.91;4992584;28;20058;-66
2021/06/03 01:53:40;;;;;;;14.82;10.38;;;;;;;12.46;100.00;96703.03;4987158;28;20081;-63
2021/06/03 01:56:11;;;;;;;14.88;10.70;;;;;;;12.47;100.00;96709.97;4988478;28;20066;-62
2021/06/03 01:58:41;;;;;;;12.50;10.68;;;;;;;12.52;100.00;96705.06;4992887;28;20460;-63
2021/06/03 02:01:09;;;;;;;11.93;10.25;;;;;;;12.49;100.00;96707.16;4987065;28;20058;-63
2021/06/03 02:03:41;;;;;;;12.52;10.55;;;;;;;12.16;100.00;96706.84;4988996;28;20104;-63
2021/06/03 02:06:10;;;;;;;12.20;10.35;;;;;;;12.32;100.00;96706.19;4990296;28;20070;-62
2021/06/03 02:08:38;;;;;;;13.93;10.52;;;;;;;12.33;100.00;96707.84;4987032;28;20057;-66
2021/06/03 02:11:07;;;;;;;12.88;11.02;;;;;;;12.11;100.00;96711.72;4991590;28;20070;-64
2021/06/03 02:13:37;;;;;;;13.48;10.25;;;;;;;12.16;100.00;96713.94;4993418;28;20085;-64
2021/06/03 02:16:46;;;;;;;14.10;11.00;;;;;;;12.19;100.00;96716.31;4985960;28;20057;-65
2021/06/03 02:19:17;;;;;;;13.30;10.85;;;;;;;12.00;100.00;96718.06;4986301;28;21658;-65
2021/06/03 02:21:46;;;;;;;;;;;;;;;12.11;100.00;96709.09;4993158;28;20096;-65
2021/06/03 02:24:15;;;;;;;14.90;11.63;;;;;;;11.99;100.00;96707.63;4987000;28;19964;-64
2021/06/03 02:26:44;;;;;;;14.65;11.88;;;;;;;12.08;100.00;96706.75;4990337;28;20062;-64
2021/06/03 02:29:12;;;;;;;16.17;11.73;;;;;;;11.90;100.00;96711.97;4990527;28;20199;-65
2021/06/03 02:31:40;;;;;;;15.32;12.07;;;;;;;11.92;100.00;96712.69;4986511;28;20062;-64
2021/06/03 02:34:10;;;;;;;17.60;12.05;;;;;;;11.63;100.00;96713.63;4986086;28;20081;-64
2021/06/03 02:36:38;;;;;;;13.85;11.75;;;;;;;11.84;100.00;96709.94;4991362;28;20089;-64
2021/06/03 02:39:07;;;;;;;15.57;12.18;;;;;;;11.78;100.00;96715.78;4986768;28;20446;-64
2021/06/03 02:41:35;;;;;;;15.45;12.93;;;;;;;11.63;100.00;96712.75;4992183;28;20084;-64
2021/06/03 02:44:05;;;;;;;15.15;13.55;;;;;;;11.72;100.00;96709.25;4986944;28;20085;-64
2021/06/03 02:46:33;;;;;;;14.25;12.63;;;;;;;11.86;100.00;96707.97;4985438;28;20063;-62
2021/06/03 02:49:01;;;;;;;14.13;11.05;;;;;;;11.61;100.00;96709.44;4989431;28;20082;-64
2021/06/03 02:51:30;;;;;;;13.45;12.05;;;;;;;11.71;100.00;96712.88;4987838;28;20077;-64
2021/06/03 02:53:58;;;;;;;12.70;11.25;;;;;;;11.76;100.00;96717.72;4987778;28;20154;-62
2021/06/03 02:56:26;;;;;;;13.95;11.63;;;;;;;11.76;100.00;96717.72;4991279;28;20109;-64
2021/06/03 02:58:54;;;;;;;16.45;11.07;;;;;;;11.69;100.00;96712.19;4986821;28;20077;-63
2021/06/03 03:01:22;;;;;;;15.45;12.65;;;;;;;11.40;100.00;96715.75;4990560;28;20069;-61
2021/06/03 03:03:50;;;;;;;14.88;12.82;;;;;;;11.54;100.00;96725.03;4994584;28;20077;-64
2021/06/03 03:06:19;;;;;;;14.45;12.95;;;;;;;11.50;100.00;96726.31;4983642;28;20081;-63
2021/06/03 03:08:48;;;;;;;17.67;13.25;;;;;;;11.48;100.00;96724.78;4990595;28;20077;-61
2021/06/03 03:11:20;;;;;;;15.50;13.27;;;;;;;11.34;100.00;96731.34;4984401;28;20058;-63
2021/06/03 03:13:48;;;;;;;18.20;14.50;;;;;;;11.46;100.00;96727.56;4977396;28;20070;-64
2021/06/03 03:16:16;;;;;;;17.75;14.07;;;;;;;11.46;100.00;96738.13;4971547;28;20070;-63
2021/06/03 03:18:45;;;;;;;16.55;13.27;;;;;;;11.33;100.00;96740.25;4967326;28;20082;-63
2021/06/03 03:21:13;;;;;;;14.43;12.93;;;;;;;11.28;100.00;96731.91;4985812;28;20073;-64
2021/06/03 03:23:41;;;;;;;17.05;13.38;;;;;;;11.24;100.00;96733.16;4989075;28;20065;-64
2021/06/03 03:26:11;;;;;;;14.65;13.10;;;;;;;11.31;100.00;96732.44;4993668;28;20081;-63
2021/06/03 03:28:39;;;;;;;16.20;12.98;;;;;;;11.12;100.00;96743.06;4981776;28;20077;-64
2021/06/03 03:31:07;;;;;;;13.73;12.13;;;;;;;11.16;100.00;96734.72;4986992;28;20077;-65
2021/06/03 03:33:35;;;;;;;15.07;12.30;;;;;;;11.20;100.00;96739.72;4968482;28;20082;-63
2021/06/03 03:36:05;;;;;;;14.40;12.38;;;;;;;11.20;100.00;96751.09;4983203;28;20078;-64
2021/06/03 03:38:33;;;;;;;13.95;12.13;;;;;;;11.34;100.00;96748.00;4976499;28;20059;-65
2021/06/03 03:41:01;;;;;;;14.45;12.05;;;;;;;11.45;100.00;96749.66;4966214;28;20063;-64
2021/06/03 03:43:30;;;;;;;14.50;12.43;;;;;;;11.41;100.00;96753.56;4966940;28;20085;-62
2021/06/03 03:45:58;;;;;;;14.52;12.73;;;;;;;11.51;100.00;96764.94;4969475;28;20521;-64
2021/06/03 03:48:27;;;;;;;14.75;13.25;;;;;;;11.69;100.00;96756.25;4967008;28;20100;-64
2021/06/03 03:50:55;;;;;;;14.80;12.65;;;;;;;12.33;100.00;96747.53;4968624;28;20073;-62
2021/06/03 03:53:23;;;;;;;15.25;12.75;;;;;;;13.35;100.00;96746.31;4964438;28;20058;-62
2021/06/03 03:55:51;;;;;;;14.32;11.52;;;;;;;14.55;100.00;96740.13;4974114;28;20070;-62
2021/06/03 03:58:19;;;;;;;13.52;10.93;;;;;;;15.09;100.00;96746.66;4986180;28;20085;-61
2021/06/03 04:00:48;;;;;;;11.35;10.15;;;;;;;16.02;100.00;96748.06;4988864;28;20093;-64
2021/06/03 04:03:16;;;;;;;11.93;9.63;;;;;;;16.98;100.00;96741.59;4982911;28;20070;-64
2021/06/03 04:05:44;;;;;;;11.43;9.38;;;;;;;17.99;100.00;96753.69;4990052;28;20066;-64
2021/06/03 04:08:12;;;;;;;12.02;9.63;;;;;;;18.13;98.37;96750.19;4982439;28;20540;-64
2021/06/03 04:10:40;;;;;;;10.50;9.15;;;;;;;18.81;94.04;96745.50;4984743;28;20066;-63
2021/06/03 04:13:08;;;;;;;9.40;8.45;;;;;;;19.67;84.15;96748.16;4989309;28;20082;-64
2021/06/03 04:15:37;;;;;;;9.65;8.50;;;;;;;18.44;96.51;96754.47;4986697;28;20089;-64
2021/06/03 04:18:06;;;;;;;9.57;8.02;;;;;;;19.17;88.78;96755.31;4985965;28;20057;-64
2021/06/03 04:20:34;;;;;;;10.05;8.50;;;;;;;20.26;79.80;96749.53;4992095;28;20521;-64
2021/06/03 04:23:02;;;;;;;9.65;7.65;;;;;;;20.94;74.27;96749.63;4982953;28;20069;-64
2021/06/03 04:25:30;;;;;;;9.77;8.65;;;;;;;21.44;64.60;96750.97;4999465;23;20066;-61
2021/06/03 04:27:59;;;;;;;10.93;9.88;;;;;;;21.53;65.36;96757.75;5003893;28;20092;-63
2021/06/03 04:30:27;;;;;;;12.88;9.57;;;;;;;21.61;63.47;96754.06;5047646;28;20523;-63
2021/06/03 04:32:55;;;;;;;10.88;9.55;;;;;;;21.13;67.87;96761.41;5045200;28;20064;-63
2021/06/03 04:35:25;;;;;;;11.18;10.07;;;;;;;20.28;73.02;96769.75;5046374;28;20081;-62
2021/06/03 04:37:53;;;;;;;10.60;9.57;;;;;;;19.90;77.02;96772.00;5026057;28;20065;-63
2021/06/03 04:40:24;;;;;;;9.45;8.55;;;;;;;19.83;75.21;96782.66;5028102;28;20554;-63
2021/06/03 04:42:52;;;;;;;10.40;9.00;;;;;;;21.50;71.67;96768.09;5029793;28;20077;-63
2021/06/03 04:45:22;;;;;;;9.40;8.30;;;;;;;23.27;58.83;96776.94;5023969;28;21406;-63
2021/06/03 04:47:49;;;;;;;10.90;8.70;;;;;;;24.73;52.81;96778.31;5030920;28;20069;-63
2021/06/03 04:50:20;;;;;;;8.80;7.85;;;;;;;23.84;53.53;96777.75;5025190;28;20087;-62
2021/06/03 04:52:49;;;;;;;8.90;8.02;;;;;;;22.34;54.38;96783.53;5028935;28;20085;-63
2021/06/03 04:55:19;;;;;;;9.57;7.60;;;;;;;21.50;58.93;96778.81;5024371;28;20065;-64
2021/06/03 04:57:48;;;;;;;8.38;7.55;;;;;;;22.08;58.32;96787.06;5026844;28;20076;-62
2021/06/03 05:00:18;;;;;;;8.40;7.60;;;;;;;22.45;58.20;96782.88;5022248;28;20065;-63
2021/06/03 05:02:47;;;;;;;9.35;7.97;;;;;;;22.49;56.96;96789.47;5027727;28;20065;-62
2021/06/03 05:05:15;;;;;;;9.35;7.40;;;;;;;23.00;53.40;96789.72;5022388;28;20088;-62
2021/06/03 05:07:43;;;;;;;11.07;8.13;;;;;;;22.04;55.79;96801.94;5027299;28;20073;-64
2021/06/03 05:10:13;;;;;;;8.20;7.40;;;;;;;22.00;57.66;96801.53;5026691;28;20077;-62
2021/06/03 05:12:41;;;;;;;8.38;7.53;;;;;;;22.89;53.87;96792.00;5028160;28;20081;-61
2021/06/03 05:15:10;;;;;;;8.45;7.63;;;;;;;22.55;57.21;96793.19;5022911;28;20437;-62
2021/06/03 05:17:38;;;;;;;10.80;7.90;;;;;;;21.78;61.19;96794.72;5026335;28;20071;-62
2021/06/03 05:20:10;;;;;;;9.15;8.25;;;;;;;22.50;60.42;96801.88;5021005;28;20073;-63
2021/06/03 05:22:38;;;;;;;8.80;7.97;;;;;;;22.57;58.48;96798.34;5028693;28;20076;-62
2021/06/03 05:25:09;;;;;;;9.77;7.97;;;;;;;22.06;65.68;96794.50;5026896;28;20081;-62
2021/06/03 05:27:38;;;;;;;8.95;8.10;;;;;;;21.91;60.67;96801.94;5031304;28;20065;-63
2021/06/03 05:30:08;;;;;;;8.80;7.95;;;;;;;21.57;63.33;96801.13;5033135;28;20065;-62
2021/06/03 05:32:36;;;;;;;8.85;7.82;;;;;;;22.52;62.09;96802.47;5027935;28;20061;-64
2021/06/03 05:35:06;;;;;;;8.98;8.07;;;;;;;22.41;62.41;96810.38;5022798;28;20070;-61
2021/06/03 05:37:34;;;;;;;14.13;8.60;;;;;;;22.63;62.96;96810.94;5029533;28;20080;-61
2021/06/03 05:40:03;;;;;;;10.35;9.25;;;;;;;23.97;51.88;96798.38;5027841;28;20079;-62
2021/06/03 05:42:31;;;;;;;9.17;8.27;;;;;;;23.07;55.86;96812.03;5026069;28;20050;-63
2021/06/03 05:45:07;;;;;;;10.43;8.93;;;;;;;22.49;62.01;96810.97;5033905;28;20072;-63
2021/06/03 05:47:35;;;;;;;10.73;8.40;;;;;;;23.03;56.10;96821.56;5026493;28;20061;-63
2021/06/03 05:50:04;;;;;;;10.65;8.73;;;;;;;23.14;57.84;96819.00;5028772;28;20066;-63
2021/06/03 05:52:32;;;;;;;9.35;8.23;;;;;;;23.16;59.42;96816.13;5024730;28;20069;-62
2021/06/03 05:55:00;;;;;;;9.23;7.65;;;;;;;24.19;54.99;96820.34;5026468;28;20088;-63
2021/06/03 05:57:28;;;;;;;9.75;8.13;;;;;;;22.57;62.09;96826.03;5028308;28;20077;-62
2021/06/03 05:59:57;;;;;;;8.90;7.97;;;;;;;22.63;65.06;96827.06;5028363;28;20069;-63
2021/06/03 06:02:30;;;;;;;8.75;7.95;;;;;;;22.05;69.55;96819.69;5025569;28;20072;-62
2021/06/03 06:07:44;;;;;;;10.15;7.80;;;;;;;21.79;73.64;96826.75;5024140;28;20195;-63
2021/06/03 06:10:12;;;;;;;11.20;8.27;;;;;;;22.16;72.38;96823.63;5026684;28;20084;-62
2021/06/03 06:12:40;;;;;;;12.77;8.25;;;;;;;22.58;67.34;96821.50;5033851;28;20077;-60
2021/06/03 06:15:09;;;;;;;11.70;8.52;;;;;;;22.07;70.08;96827.56;5025948;28;20064;-62
2021/06/03 06:17:38;;;;;;;8.85;7.95;;;;;;;20.78;82.73;96836.59;5024373;28;20068;-61
2021/06/03 06:20:07;;;;;;;11.68;8.05;;;;;;;20.96;81.85;96836.06;5029434;28;20072;-63
2021/06/03 06:22:36;;;;;;;8.82;7.93;;;;;;;21.01;85.76;96831.72;5027842;28;20058;-62
2021/06/03 06:25:05;;;;;;;9.85;7.60;;;;;;;20.73;92.18;96833.69;5025403;28;20125;-62
2021/06/03 06:27:33;;;;;;;10.18;7.97;;;;;;;20.90;93.57;96832.31;5031529;28;20191;-62
2021/06/03 06:30:01;;;;;;;10.50;8.55;;;;;;;21.27;86.10;96833.66;5028202;28;20072;-63
2021/06/03 06:32:29;;;;;;;10.85;8.00;;;;;;;21.20;94.13;96838.19;5026546;28;20225;-62
2021/06/03 06:34:58;;;;;;;12.65;9.35;;;;;;;21.14;93.05;96841.69;5024880;28;20550;-62
2021/06/03 06:37:26;;;;;;;10.80;8.00;;;;;;;21.36;90.86;96838.88;5026920;28;20101;-62
2021/06/03 06:39:54;;;;;;;10.82;7.38;;;;;;;20.84;96.63;96841.97;5026969;28;20077;-63
2021/06/03 06:42:24;;;;;;;10.00;7.35;;;;;;;21.27;94.81;96843.59;5029088;28;20088;-62
2021/06/03 06:44:52;;;;;;;8.20;6.63;;;;;;;20.82;99.54;96852.09;5025213;28;20072;-63
2021/06/03 06:47:19;;;;;;;10.80;6.85;;;;;;;21.29;94.67;96849.56;5035409;28;20144;-62
2021/06/03 06:49:48;;;;;;;7.88;7.07;;;;;;;21.28;99.66;96840.69;5029381;28;20069;-62
2021/06/03 06:52:17;;;;;;;8.57;6.78;;;;;;;20.72;98.64;96850.81;5028553;28;20107;-62
2021/06/03 06:54:47;;;;;;;9.00;7.23;;;;;;;21.65;93.82;96845.75;5030045;28;20080;-61
2021/06/03 06:57:15;;;;;;;10.55;7.40;;;;;;;21.70;93.69;96852.13;5025814;28;20522;-62
2021/06/03 06:59:43;;;;;;;8.75;6.85;;;;;;;21.85;92.80;96854.63;5025889;28;20514;-60
2021/06/03 07:02:11;;;;;;;10.68;7.18;;;;;;;21.85;94.95;96860.00;5029142;28;20073;-62
2021/06/03 07:04:39;;;;;;;8.27;6.55;;;;;;;21.66;92.91;96858.13;5025081;28;20087;-63
2021/06/03 07:07:07;;;;;;;7.97;7.18;;;;;;;21.87;90.57;96855.25;5027903;28;20535;-63
2021/06/03 07:09:36;;;;;;;8.18;6.93;;;;;;;22.56;85.91;96862.03;5027345;28;20091;-63
2021/06/03 07:12:05;;;;;;;7.30;6.60;;;;;;;22.37;84.27;96861.03;5025308;28;20065;-63
2021/06/03 07:14:33;;;;;;;7.18;6.38;;;;;;;22.48;83.93;96852.34;5028444;28;20087;-63
2021/06/03 07:17:01;;;;;;;8.85;6.97;;;;;;;22.79;85.07;96852.66;5031034;28;20095;-62
2021/06/03 07:19:30;;;;;;;7.78;6.55;;;;;;;23.39;77.79;96856.75;5024934;28;20068;-63
2021/06/03 07:21:58;;;;;;;10.65;8.23;;;;;;;22.16;85.81;96867.47;5030431;28;20088;-62
2021/06/03 07:24:26;;;;;;;10.70;8.00;;;;;;;22.74;82.36;96866.72;5027717;28;20081;-62
2021/06/03 07:26:55;;;;;;;17.80;12.60;;;;;;;23.19;80.85;96867.66;5020798;28;20539;-62
2021/06/03 07:29:23;;;;;;;8.23;6.07;;;;;;;22.92;81.62;96866.94;5031529;28;20065;-62
2021/06/03 07:31:51;;;;;;;10.70;6.20;;;;;;;22.80;77.53;96863.19;5024430;28;20569;-62
2021/06/03 07:34:19;;;;;;;6.65;5.93;;;;;;;22.60;82.38;96868.63;5026396;28;20057;-62
2021/06/03 07:36:48;;;;;;;8.70;6.18;;;;;;;22.51;82.19;96875.28;5032075;28;20561;-61
2021/06/03 07:39:16;;;;;;;7.63;5.90;;;;;;;22.79;83.58;96872.31;5025115;28;20065;-62
2021/06/03 07:41:44;;;;;;;6.78;6.07;;;;;;;22.35;84.19;96875.72;5023110;28;20061;-62
2021/06/03 07:44:13;;;;;;;8.02;6.10;;;;;;;22.76;83.70;96872.72;5027461;28;20080;-62
2021/06/03 07:46:41;;;;;;;8.30;6.03;;;;;;;23.32;77.67;96871.28;5022708;28;20072;-63
2021/06/03 07:49:12;;;;;;;7.50;6.22;;;;;;;23.28;80.16;96865.50;5026633;28;20077;-62
2021/06/03 07:51:40;;;;;;;9.18;6.80;;;;;;;23.19;71.80;96870.34;5027695;28;20085;-62
2021/06/03 07:54:08;;;;;;;7.95;6.20;;;;;;;23.31;74.05;96869.66;5026271;28;20088;-62
2021/06/03 07:56:36;;;;;;;6.80;6.20;;;;;;;23.06;75.17;96881.16;5022797;28;20468;-63
2021/06/03 07:59:04;;;;;;;6.90;6.20;;;;;;;23.38;72.79;96882.03;5041167;28;20068;-62
2021/06/03 08:01:33;;;;;;;8.10;6.65;;;;;;;23.92;70.54;96871.78;5022323;28;20065;-62
2021/06/03 08:04:02;;;;;;;6.72;6.00;;;;;;;24.00;74.39;96876.88;5032207;28;20740;-62
2021/06/03 08:06:30;;;;;;;8.05;5.68;;;;;;;24.22;68.15;96869.22;5025454;28;20523;-62
2021/06/03 08:33:08;;;;;;;9.20;6.72;;;;;;;23.93;74.05;96863.47;5105555;27;20683;-56
2021/06/03 08:35:37;;;;;;;8.90;6.75;;;;;;;24.63;72.29;96863.25;5081614;28;20068;-58
2021/06/03 08:38:07;;;;;;;8.10;7.30;;;;;;;24.46;67.24;96864.06;5090410;28;20526;-57
2021/06/03 08:40:37;;;;;;;8.63;7.30;;;;;;;24.62;66.77;96868.88;5087374;28;20083;-57
2021/06/03 08:43:06;;;;;;;8.93;7.43;;;;;;;24.97;63.19;96862.91;5082906;28;21055;-58
2021/06/03 08:45:37;;;;;;;8.30;7.45;;;;;;;25.10;64.29;96865.44;5100799;28;20079;-58
2021/06/03 08:48:05;;;;;;;7.80;7.05;;;;;;;25.37;62.58;96867.84;5083516;28;20072;-58
2021/06/03 08:50:36;;;;;;;8.60;7.30;;;;;;;24.93;63.84;96867.09;5093345;28;20113;-58
2021/06/03 08:53:05;;;;;;;8.80;6.80;;;;;;;24.99;61.58;96868.91;5101903;27;20070;-57
2021/06/03 08:58:21;;;;;;;8.88;7.18;;;;;;;25.06;62.03;96866.94;5080869;28;20060;-57
2021/06/03 09:00:49;;;;;;;8.38;7.57;;;;;;;25.06;61.57;96866.94;5079815;28;20493;-58
2021/06/03 09:03:18;;;;;;;10.07;8.18;;;;;;;24.31;63.79;96873.31;5100378;28;20071;-58
2021/06/03 09:05:48;;;;;;;8.20;7.40;;;;;;;24.09;64.59;96874.75;5080775;28;20068;-55
2021/06/03 09:08:18;;;;;;;8.13;7.00;;;;;;;24.11;66.30;96869.97;5078489;28;20063;-59
2021/06/03 09:10:47;;;;;;;7.72;7.03;;;;;;;24.74;64.02;96877.03;5084044;28;20055;-57
2021/06/03 09:13:16;;;;;;;12.55;6.90;;;;;;;24.80;61.93;96866.19;5097646;28;22270;-57
2021/06/03 09:15:45;;;;;;;8.43;7.47;;;;;;;24.64;58.42;96869.50;5101935;28;20098;-59
2021/06/03 09:18:14;;;;;;;7.80;7.10;;;;;;;24.90;60.23;96868.38;5081961;28;20071;-57
2021/06/03 09:20:43;;;;;;;9.90;6.63;;;;;;;24.82;57.34;96865.97;5093089;28;20536;-57
2021/06/03 09:23:27;;;;;;;8.02;7.15;;;;;;;24.66;57.15;96866.56;5100103;27;20060;-58
2021/06/03 09:25:56;;;;;;;8.27;7.25;;;;;;;25.09;57.62;96866.50;5088257;28;20068;-56
2021/06/03 09:28:27;;;;;;;8.52;6.63;;;;;;;25.21;56.53;96858.47;5079262;27;20068;-57
2021/06/03 09:31:01;;;;;;;32.47;8.35;;;;;;;24.82;59.59;96863.28;5083522;28;20083;-57
2021/06/03 09:33:40;;;;;;;8.70;6.38;;;;;;;25.30;59.30;96855.25;5063538;28;20313;-58
2021/06/03 09:36:09;;;;;;;7.72;7.00;;;;;;;24.97;58.84;96850.22;5064987;28;20056;-58
2021/06/03 09:38:51;;;;;;;7.95;6.65;;;;;;;25.46;58.75;96852.94;5065899;28;20067;-58
2021/06/03 09:41:19;;;;;;;8.18;7.38;;;;;;;25.45;56.80;96852.13;5077184;28;20515;-58
2021/06/03 09:43:47;;;;;;;8.70;7.15;;;;;;;25.37;60.31;96849.75;5084594;28;20064;-58
2021/06/03 09:46:16;;;;;;;8.18;7.00;;;;;;;25.84;57.52;96851.78;5086799;28;20083;-58
2021/06/03 09:48:46;;;;;;;10.23;6.75;;;;;;;26.03;58.99;96847.94;5084959;28;20084;-59
2021/06/03 09:51:22;;;;;;;7.75;6.47;;;;;;;26.31;57.58;96843.72;5087819;28;20071;-57
2021/06/03 09:53:56;;;;;;;10.80;6.63;;;;;;;26.09;56.09;96849.72;5085066;28;20068;-59
2021/06/03 09:56:26;;;;;;;9.45;7.35;;;;;;;26.39;50.59;96848.78;5085021;28;20105;-58
2021/06/03 09:58:54;;;;;;;7.80;6.75;;;;;;;26.34;51.38;96844.09;5088784;28;20072;-59
2021/06/03 10:01:45;;;;;;;10.30;7.70;;;;;;;25.83;52.57;96848.25;5090462;28;20066;-58
2021/06/03 10:04:14;;;;;;;10.50;7.03;;;;;;;26.51;52.42;96855.88;5080579;28;20547;-58
2021/06/03 10:07:02;;;;;;;9.30;7.72;;;;;;;25.97;54.66;96855.09;5097334;28;20087;-58
2021/06/03 10:09:42;;;;;;;8.75;7.82;;;;;;;26.19;50.42;96847.25;5084978;28;21599;-58
2021/06/03 10:12:12;;;;;;;8.15;6.90;;;;;;;26.46;53.19;96854.88;5087312;28;20074;-60
2021/06/03 10:14:40;;;;;;;11.35;10.15;;;;;;;25.84;56.15;96854.47;5083915;28;20082;-59
2021/06/03 10:17:17;;;;;;;10.88;9.77;;;;;;;26.14;53.84;96851.72;5084046;28;20067;-60
2021/06/03 10:19:46;;;;;;;9.43;8.43;;;;;;;26.34;53.29;96851.38;5084573;28;20145;-58
2021/06/03 10:22:20;;;;;;;13.30;7.90;;;;;;;26.40;55.87;96842.34;5083552;28;20083;-59
2021/06/03 10:24:55;;;;;;;9.45;8.55;;;;;;;26.36;52.78;96846.53;5084459;28;20075;-59
2021/06/03 10:27:25;;;;;;;11.10;9.98;;;;;;;26.32;51.50;96848.06;5086565;28;20071;-59
2021/06/03 10:29:54;;;;;;;11.82;9.98;;;;;;;26.45;52.31;96853.25;5081600;28;20060;-58
2021/06/03 10:32:24;;;;;;;10.30;8.90;;;;;;;26.78;52.94;96851.84;5091539;28;20063;-59
2021/06/03 10:34:54;;;;;;;11.63;9.90;;;;;;;27.02;50.50;96847.22;5084070;28;20087;-59
2021/06/03 10:37:24;;;;;;;;;;;;;;;27.05;49.63;96849.41;5089059;28;20076;-59
2021/06/03 10:39:55;;;;;;;10.88;8.90;;;;;;;26.75;49.55;96845.03;5084319;28;19959;-59
2021/06/03 10:42:25;;;;;;;8.32;7.05;;;;;;;27.47;50.49;96847.31;5086552;28;21321;-59
2021/06/03 10:44:53;;;;;;;8.82;7.10;;;;;;;26.75;44.00;96845.84;5085773;28;20063;-60
2021/06/03 10:47:21;;;;;;;6.80;6.10;;;;;;;26.39;44.01;96846.06;5067872;28;20071;-58
2021/06/03 10:49:50;;;;;;;7.90;6.43;;;;;;;26.96;43.90;96847.09;5070295;28;20508;-59
2021/06/03 10:52:18;;;;;;;330.02;21.38;;;;;;;26.74;41.52;96838.78;5089916;28;20056;-59
2021/06/03 10:54:53;;;;;;;9.35;7.20;;;;;;;26.72;43.25;96843.59;5086449;28;20079;-59
2021/06/03 10:57:22;;;;;;;8.80;7.45;;;;;;;27.44;41.96;96836.94;5083029;28;20372;-57
2021/06/03 10:59:51;;;;;;;9.60;8.07;;;;;;;26.72;42.90;96840.09;5088624;28;20071;-59
2021/06/03 11:02:19;;;;;;;8.23;6.60;;;;;;;27.43;42.96;96843.44;5085200;28;20067;-59
2021/06/03 11:04:47;;;;;;;12.00;7.85;;;;;;;27.23;44.84;96838.47;5080594;28;20060;-58
2021/06/03 11:07:15;;;;;;;8.10;7.10;;;;;;;27.04;44.56;96836.94;5084310;28;20087;-59
2021/06/03 11:09:44;;;;;;;9.55;7.05;;;;;;;27.35;42.96;96832.97;5092243;28;20071;-59
2021/06/03 11:12:17;;;;;;;8.90;6.75;;;;;;;27.32;42.78;96828.03;5083877;28;20072;-59
2021/06/03 11:15:07;;;;;;;11.48;5.22;;;;;;;27.35;40.89;96835.69;5092085;28;20122;-58
2021/06/03 11:18:01;;;;;;;6.45;5.32;;;;;;;27.66;39.97;96829.75;5075455;28;20080;-59
2021/06/03 11:20:43;;;;;;;7.00;5.93;;;;;;;27.62;38.51;96823.19;5078108;28;20068;-59
2021/06/03 11:23:58;;;;;;;9.07;5.72;;;;;;;27.35;39.36;96822.97;5061499;28;20075;-59
2021/06/03 11:27:02;;;;;;;6.07;5.47;;;;;;;27.63;40.60;96824.84;5075866;28;20071;-59
2021/06/03 11:29:33;;;;;;;8.88;4.93;;;;;;;27.48;42.29;96829.16;5084157;28;20060;-59
2021/06/03 11:32:19;;;;;;;8.23;6.90;;;;;;;27.15;41.96;96826.13;5069049;28;20072;-59
2021/06/03 11:34:49;;;;;;;7.47;6.47;;;;;;;27.39;41.37;96831.44;5061384;28;20562;-59
2021/06/03 11:37:18;;;;;;;7.95;6.28;;;;;;;27.52;38.86;96823.00;5061983;28;20071;-57
2021/06/03 11:39:49;;;;;;;8.30;5.70;;;;;;;27.55;40.32;96819.81;5081750;28;20086;-59
2021/06/03 11:42:26;;;;;;;6.47;5.38;;;;;;;27.54;40.41;96815.47;5061120;28;20452;-59
2021/06/03 11:45:16;;;;;;;5.30;4.80;;;;;;;27.44;37.75;96824.22;5079812;28;20067;-59
2021/06/03 11:48:14;;;;;;;;;;;;;;;27.14;38.07;96815.53;5068197;28;20067;-59
2021/06/03 11:50:44;;;;;;;5.50;5.00;;;;;;;27.25;38.84;96813.81;5062653;28;20404;-59
2021/06/03 11:53:15;;;;;;;8.07;5.03;;;;;;;26.97;38.28;96813.53;5072462;28;20052;-59
2021/06/03 11:55:47;;;;;;;19.27;5.93;;;;;;;27.51;37.74;96810.53;5075999;28;20063;-59
2021/06/03 11:58:21;;;;;;;6.20;4.68;;;;;;;27.95;37.75;96804.53;5063544;28;20080;-59
2021/06/03 12:00:53;;;;;;;5.68;4.30;;;;;;;27.81;38.69;96802.16;5064029;28;20081;-59
2021/06/03 12:03:43;;;;;;;6.75;4.20;;;;;;;27.67;37.33;96807.03;5058982;28;21068;-59
2021/06/03 12:06:13;;;;;;;;;;;;;;;27.79;37.36;96798.03;5051201;28;20068;-59
2021/06/03 12:08:47;;;;;;;5.90;4.85;;;;;;;28.02;36.44;96799.75;5077763;28;19971;-59